createdAt,value
2022-08-29T00:01:33.264Z,96.30
2022-08-29T00:04:03.664Z,95.30
2022-08-29T00:06:32.510Z,95.30
2022-08-29T00:09:00.547Z,94.60
2022-08-29T00:11:28.552Z,94.90
2022-08-29T00:13:56.559Z,93.60
2022-08-29T00:16:24.638Z,93.80
2022-08-29T00:18:52.738Z,93.50
2022-08-29T00:21:22.091Z,94.30
2022-08-29T00:23:50.031Z,95.00
2022-08-29T00:26:18.010Z,94.30
2022-08-29T00:28:46.023Z,93.50
2022-08-29T00:31:14.030Z,93.70
2022-08-29T00:33:42.185Z,94.50
2022-08-29T00:36:10.798Z,94.30
2022-08-29T00:38:41.802Z,94.00
2022-08-29T00:41:10.002Z,94.50
2022-08-29T00:43:38.682Z,94.00
2022-08-29T00:46:46.179Z,93.90
2022-08-29T00:49:24.296Z,93.80
2022-08-29T00:51:53.165Z,94.30
2022-08-29T00:54:23.925Z,94.80
2022-08-29T00:59:26.023Z,94.00
2022-08-29T01:01:56.171Z,93.50
2022-08-29T01:04:24.541Z,93.20
2022-08-29T01:06:53.349Z,93.60
2022-08-29T01:09:23.106Z,92.30
2022-08-29T01:12:08.709Z,92.20
2022-08-29T01:14:38.747Z,88.80
2022-08-29T01:17:09.540Z,89.90
2022-08-29T01:19:44.107Z,87.40
2022-08-29T01:22:23.635Z,88.80
2022-08-29T01:24:55.187Z,91.00
2022-08-29T01:27:29.009Z,91.20
2022-08-29T01:29:57.274Z,91.90
2022-08-29T01:32:26.398Z,93.00
2022-08-29T01:34:55.614Z,94.30
2022-08-29T01:37:23.821Z,94.90
2022-08-29T01:39:53.167Z,95.00
2022-08-29T01:42:25.038Z,95.10
2022-08-29T01:44:56.091Z,94.90
2022-08-29T01:47:27.632Z,94.90
2022-08-29T01:49:56.223Z,93.80
2022-08-29T01:52:24.464Z,94.00
2022-08-29T01:54:53.972Z,92.70
2022-08-29T01:57:22.006Z,92.70
2022-08-29T01:59:50.273Z,91.80
2022-08-29T02:02:21.577Z,93.10
2022-08-29T02:04:49.988Z,94.40
2022-08-29T02:07:19.798Z,95.50
2022-08-29T02:09:48.881Z,95.90
2022-08-29T02:12:18.830Z,96.20
2022-08-29T02:14:47.226Z,96.30
2022-08-29T02:17:15.201Z,96.30
2022-08-29T02:19:44.078Z,94.80
2022-08-29T02:22:13.684Z,95.10
2022-08-29T02:24:42.448Z,94.80
2022-08-29T02:27:12.609Z,94.70
2022-08-29T02:29:42.131Z,94.70
2022-08-29T02:32:12.912Z,94.60
2022-08-29T02:34:47.498Z,94.60
2022-08-29T02:37:15.901Z,93.80
2022-08-29T02:39:43.941Z,92.90
2022-08-29T02:42:11.954Z,91.80
2022-08-29T02:44:41.354Z,91.70
2022-08-29T02:47:09.656Z,91.20
2022-08-29T02:49:39.523Z,91.80
2022-08-29T02:52:08.568Z,92.70
2022-08-29T02:54:36.950Z,93.20
2022-08-29T02:57:05.378Z,93.70
2022-08-29T02:59:33.538Z,93.10
2022-08-29T03:02:02.987Z,93.60
2022-08-29T03:04:31.011Z,94.20
2022-08-29T03:06:59.006Z,94.30
2022-08-29T03:09:26.983Z,93.70
2022-08-29T03:11:56.432Z,93.90
2022-08-29T03:14:24.521Z,99.90
2022-08-29T03:16:52.570Z,93.00
2022-08-29T03:19:22.853Z,91.30
2022-08-29T03:21:51.214Z,91.90
2022-08-29T03:24:26.193Z,90.60
2022-08-29T03:26:56.853Z,91.80
2022-08-29T03:29:26.076Z,93.40
2022-08-29T03:31:58.161Z,94.20
2022-08-29T03:34:28.640Z,94.30
2022-08-29T03:36:56.703Z,95.00
2022-08-29T03:39:25.391Z,95.30
2022-08-29T03:41:54.016Z,95.30
2022-08-29T03:44:22.040Z,95.20
2022-08-29T03:46:50.183Z,95.30
2022-08-29T03:49:18.301Z,94.90
2022-08-29T03:51:49.965Z,94.60
2022-08-29T03:54:18.263Z,94.30
2022-08-29T03:56:46.611Z,94.80
2022-08-29T03:59:15.603Z,94.60
2022-08-29T04:01:43.643Z,95.30
2022-08-29T04:04:32.231Z,94.90
2022-08-29T04:07:02.020Z,94.70
2022-08-29T04:09:30.346Z,93.60
2022-08-29T04:11:58.339Z,94.30
2022-08-29T04:14:26.647Z,95.50
2022-08-29T04:16:54.838Z,95.60
2022-08-29T04:19:23.558Z,95.80
2022-08-29T04:21:51.492Z,96.10
2022-08-29T04:24:20.857Z,95.60
2022-08-29T04:26:48.868Z,95.60
2022-08-29T04:29:16.922Z,95.20
2022-08-29T04:31:45.574Z,95.30
2022-08-29T04:34:14.352Z,95.70
2022-08-29T04:36:45.258Z,95.00
2022-08-29T04:39:14.171Z,94.90
2022-08-29T04:44:21.624Z,94.70
2022-08-29T04:46:49.635Z,95.70
2022-08-29T04:49:17.674Z,96.70
2022-08-29T04:51:45.664Z,99.90
2022-08-29T04:54:13.648Z,96.50
2022-08-29T04:56:47.152Z,96.80
2022-08-29T04:59:16.084Z,94.80
2022-08-29T05:01:45.488Z,93.30
2022-08-29T05:04:14.739Z,93.70
2022-08-29T05:06:43.447Z,94.10
2022-08-29T05:09:11.443Z,94.30
2022-08-29T05:11:40.132Z,94.80
2022-08-29T05:14:08.198Z,95.20
2022-08-29T05:16:37.238Z,96.30
2022-08-29T05:19:08.424Z,96.80
2022-08-29T05:21:39.719Z,96.70
2022-08-29T05:24:10.366Z,96.20
2022-08-29T05:26:41.588Z,95.20
2022-08-29T05:29:11.039Z,94.70
2022-08-29T05:31:41.171Z,94.20
2022-08-29T05:34:32.183Z,94.90
2022-08-29T05:37:00.927Z,95.60
2022-08-29T05:39:29.373Z,94.80
2022-08-29T05:41:58.154Z,99.90
2022-08-29T05:44:26.443Z,94.30
2022-08-29T05:46:54.411Z,92.90
2022-08-29T05:49:23.873Z,91.60
2022-08-29T05:51:54.261Z,99.90
2022-08-29T05:54:22.519Z,90.90
2022-08-29T05:56:51.339Z,90.30
2022-08-29T05:59:19.828Z,89.70
2022-08-29T06:01:47.899Z,98.40
2022-08-29T06:04:16.161Z,88.80
2022-08-29T06:06:45.717Z,90.00
2022-08-29T06:09:14.480Z,89.30
2022-08-29T06:11:42.503Z,89.50
2022-08-29T06:14:10.490Z,85.90
2022-08-29T06:16:39.796Z,84.30
2022-08-29T06:19:07.780Z,83.60
2022-08-29T06:21:35.848Z,83.00
2022-08-29T06:24:05.937Z,82.50
2022-08-29T06:26:33.987Z,83.10
2022-08-29T06:29:05.129Z,84.30
2022-08-29T06:31:33.393Z,84.20
2022-08-29T06:34:02.967Z,84.30
2022-08-29T06:36:33.089Z,84.30
2022-08-29T06:39:08.169Z,82.50
2022-08-29T06:41:37.090Z,82.60
2022-08-29T06:44:05.303Z,94.70
2022-08-29T06:46:36.310Z,80.60
2022-08-29T06:49:07.304Z,79.80
2022-08-29T06:51:38.499Z,79.80
2022-08-29T06:54:09.426Z,78.70
2022-08-29T06:56:39.260Z,82.30
2022-08-29T06:59:08.335Z,79.70
2022-08-29T07:01:36.874Z,79.20
2022-08-29T07:04:05.276Z,79.30
2022-08-29T07:06:42.613Z,79.90
2022-08-29T07:09:12.966Z,79.90
2022-08-29T07:11:43.435Z,80.70
2022-08-29T07:14:12.443Z,79.80
2022-08-29T07:16:41.249Z,81.50
2022-08-29T07:19:11.060Z,78.40
2022-08-29T07:21:39.775Z,79.10
2022-08-29T07:24:08.675Z,76.70
2022-08-29T07:26:43.391Z,76.00
2022-08-29T07:29:13.762Z,75.80
2022-08-29T07:31:42.114Z,75.70
2022-08-29T07:34:10.189Z,75.00
2022-08-29T07:36:38.469Z,73.30
2022-08-29T07:39:10.535Z,71.80
2022-08-29T07:41:41.579Z,72.10
2022-08-29T07:44:10.074Z,71.50
2022-08-29T07:46:38.482Z,72.40
2022-08-29T07:49:07.115Z,70.40
2022-08-29T07:51:35.637Z,69.20
2022-08-29T07:54:04.575Z,67.20
2022-08-29T07:56:37.783Z,66.40
2022-08-29T07:59:08.697Z,66.60
2022-08-29T08:01:37.244Z,66.40
2022-08-29T08:04:06.255Z,66.00
2022-08-29T08:06:36.852Z,66.00
2022-08-29T08:09:05.818Z,65.00
2022-08-29T08:11:33.846Z,65.70
2022-08-29T08:14:01.923Z,66.10
2022-08-29T08:16:32.078Z,65.20
2022-08-29T08:19:00.221Z,66.00
2022-08-29T08:21:28.594Z,65.40
2022-08-29T08:23:56.834Z,63.80
2022-08-29T08:26:25.264Z,64.30
2022-08-29T08:28:55.303Z,63.40
2022-08-29T08:31:24.359Z,61.40
2022-08-29T08:33:54.460Z,60.60
2022-08-29T08:36:25.112Z,60.10
2022-08-29T08:38:54.818Z,58.70
2022-08-29T08:41:36.311Z,58.40
2022-08-29T08:44:08.103Z,59.60
2022-08-29T08:46:39.637Z,58.90
2022-08-29T08:49:27.025Z,57.90
2022-08-29T08:52:00.136Z,77.90
2022-08-29T08:54:33.170Z,57.00
2022-08-29T08:57:08.632Z,56.20
2022-08-29T08:59:41.234Z,56.50
2022-08-29T09:02:17.522Z,53.40
2022-08-29T09:04:58.487Z,53.40
2022-08-29T09:07:47.243Z,52.30
2022-08-29T09:10:28.875Z,70.10
2022-08-29T09:13:05.622Z,47.30
2022-08-29T09:15:47.782Z,46.70
2022-08-29T09:18:25.146Z,47.00
2022-08-29T09:20:55.171Z,46.20
2022-08-29T09:23:28.342Z,45.00
2022-08-29T09:25:56.667Z,43.90
2022-08-29T09:28:24.643Z,41.50
2022-08-29T09:31:18.041Z,42.20
2022-08-29T09:33:49.935Z,41.80
2022-08-29T09:36:38.629Z,39.60
2022-08-29T09:39:19.106Z,38.90
2022-08-29T09:41:49.913Z,54.20
2022-08-29T09:44:22.767Z,36.80
2022-08-29T09:47:06.947Z,36.60
2022-08-29T09:49:35.697Z,35.80
2022-08-29T09:52:13.649Z,34.60
2022-08-29T09:54:42.723Z,36.10
2022-08-29T09:57:13.803Z,34.80
2022-08-29T09:59:44.797Z,34.80
2022-08-29T10:02:19.948Z,34.10
2022-08-29T10:04:50.115Z,34.60
2022-08-29T10:07:22.828Z,33.60
2022-08-29T10:10:02.875Z,33.20
2022-08-29T10:12:39.184Z,31.50
2022-08-29T10:15:23.659Z,32.10
2022-08-29T10:18:24.094Z,31.60
2022-08-29T10:21:10.166Z,31.00
2022-08-29T10:23:51.856Z,29.10
2022-08-29T10:26:34.096Z,30.00
2022-08-29T10:29:13.585Z,29.90
2022-08-29T10:31:51.588Z,28.50
2022-08-29T10:34:32.222Z,29.10
2022-08-29T10:37:08.645Z,29.60
2022-08-29T10:39:46.918Z,29.10
2022-08-29T10:45:13.239Z,29.30
2022-08-29T10:47:46.870Z,29.60
2022-08-29T10:50:43.552Z,29.10
2022-08-29T10:53:17.690Z,29.70
2022-08-29T10:55:53.456Z,29.80
2022-08-29T10:58:36.350Z,27.40
2022-08-29T11:01:10.741Z,29.10
2022-08-29T11:03:42.916Z,29.10
2022-08-29T11:06:14.094Z,29.00
2022-08-29T11:08:47.336Z,26.70
2022-08-29T11:11:20.372Z,25.70
2022-08-29T11:13:55.172Z,42.40
2022-08-29T11:16:30.435Z,26.50
2022-08-29T11:19:06.561Z,27.00
2022-08-29T11:21:38.878Z,27.30
2022-08-29T11:24:08.015Z,26.30
2022-08-29T11:26:50.454Z,25.70
2022-08-29T11:29:27.577Z,24.60
2022-08-29T11:32:00.345Z,23.50
2022-08-29T11:34:36.520Z,23.40
2022-08-29T11:37:41.065Z,24.60
2022-08-29T11:40:16.223Z,23.70
2022-08-29T11:42:52.078Z,22.20
2022-08-29T11:45:27.824Z,22.00
2022-08-29T11:48:20.454Z,22.80
2022-08-29T11:53:33.673Z,42.00
2022-08-29T11:56:21.985Z,22.30
2022-08-29T11:58:53.807Z,22.20
2022-08-29T12:02:00.579Z,21.50
2022-08-29T12:04:54.484Z,28.90
2022-08-29T12:07:34.438Z,28.60
2022-08-29T12:10:05.089Z,26.60
2022-08-29T12:12:45.579Z,44.40
2022-08-29T12:15:43.326Z,26.00
2022-08-29T12:18:40.081Z,23.50
2022-08-29T12:21:47.159Z,24.40
2022-08-29T12:24:57.699Z,23.10
2022-08-29T12:27:58.458Z,22.40
2022-08-29T12:30:26.793Z,21.20
2022-08-29T12:33:08.728Z,40.90
2022-08-29T12:36:07.401Z,23.20
2022-08-29T12:38:45.953Z,22.60
2022-08-29T12:41:33.873Z,23.60
2022-08-29T12:44:04.588Z,22.70
2022-08-29T12:46:36.066Z,22.90
2022-08-29T12:49:13.372Z,22.60
2022-08-29T12:51:44.061Z,22.50
2022-08-29T12:54:13.797Z,22.60
2022-08-29T12:56:48.664Z,20.10
2022-08-29T13:14:51.650Z,26.70
2022-08-29T13:17:22.491Z,27.00
2022-08-29T13:20:27.997Z,27.30
2022-08-29T13:23:21.611Z,25.20
2022-08-29T13:25:53.617Z,28.60
2022-08-29T13:28:27.148Z,29.10
2022-08-29T13:31:07.228Z,30.00
2022-08-29T13:33:36.200Z,31.30
2022-08-29T13:36:32.601Z,29.60
2022-08-29T13:39:29.429Z,26.50
2022-08-29T13:42:28.923Z,28.20
2022-08-29T13:45:08.938Z,25.40
2022-08-29T13:48:05.483Z,28.20
2022-08-29T15:35:21.983Z,20.90
2022-08-29T15:37:50.211Z,21.60
2022-08-29T15:40:19.423Z,22.30
2022-08-29T15:42:47.782Z,22.40
2022-08-29T15:45:16.343Z,23.40
2022-08-29T15:52:44.468Z,9.90
2022-08-29T15:55:13.278Z,16.10
2022-08-29T18:42:43.439Z,76.60
2022-08-29T18:45:12.358Z,73.60
2022-08-29T18:47:40.452Z,69.90
2022-08-29T18:50:26.662Z,70.80
2022-08-29T18:52:56.608Z,74.50
2022-08-29T18:57:53.931Z,77.80
2022-08-29T19:00:24.892Z,79.00
2022-08-29T19:10:23.601Z,76.60
2022-08-29T19:12:51.547Z,77.80
2022-08-29T19:15:21.035Z,75.60
2022-08-29T19:17:49.437Z,74.90
2022-08-29T19:20:36.973Z,71.80
2022-08-29T19:23:05.610Z,69.60
2022-08-29T19:25:35.765Z,68.50
2022-08-29T19:28:04.876Z,68.50
2022-08-29T19:30:33.515Z,68.10
2022-08-29T19:33:01.787Z,69.00
2022-08-29T19:35:29.790Z,69.80
2022-08-29T19:37:57.822Z,69.10
2022-08-29T19:40:26.896Z,69.40
2022-08-29T19:42:57.002Z,69.80
2022-08-29T19:45:25.860Z,70.00
2022-08-29T19:47:53.933Z,72.10
2022-08-29T19:50:24.689Z,72.40
2022-08-29T19:52:54.705Z,75.60
2022-08-29T19:55:24.054Z,74.80
2022-08-29T19:57:52.394Z,74.60
2022-08-29T20:00:25.439Z,74.00
2022-08-29T20:02:54.035Z,75.50
2022-08-29T20:05:23.023Z,75.30
2022-08-29T20:07:51.388Z,75.20
2022-08-29T20:10:22.274Z,75.40
2022-08-29T20:12:51.162Z,76.20
2022-08-29T20:15:21.361Z,76.60
2022-08-29T20:17:59.223Z,76.10
2022-08-29T20:20:30.442Z,78.80
2022-08-29T20:22:58.421Z,78.80
2022-08-29T20:25:26.823Z,79.90
2022-08-29T20:27:54.842Z,81.90
2022-08-29T20:30:26.845Z,83.50
2022-08-29T20:32:55.255Z,83.50
2022-08-29T20:35:38.079Z,84.00
2022-08-29T20:38:06.704Z,85.80
2022-08-29T20:40:37.795Z,86.50
2022-08-29T20:43:06.194Z,85.70
2022-08-29T20:45:35.619Z,89.20
2022-08-29T20:57:56.925Z,90.50
2022-08-29T21:00:25.355Z,76.80
2022-08-29T21:03:12.292Z,77.50
2022-08-29T21:05:43.682Z,75.90
2022-08-29T21:08:15.017Z,80.30
2022-08-29T21:10:43.353Z,79.90
2022-08-29T21:13:11.423Z,79.30
2022-08-29T21:15:41.095Z,80.00
2022-08-29T21:18:12.247Z,81.40
2022-08-29T21:20:52.298Z,83.30
2022-08-29T21:23:24.126Z,82.90
2022-08-29T21:25:54.337Z,83.50
2022-08-29T21:28:24.749Z,83.90
2022-08-29T21:30:53.394Z,84.40
2022-08-29T21:33:23.396Z,84.50
2022-08-29T21:35:51.376Z,86.10
2022-08-29T21:40:51.286Z,85.10
2022-08-29T21:43:20.715Z,85.10
2022-08-29T21:45:49.227Z,84.50
2022-08-29T21:48:17.718Z,86.10
2022-08-29T21:50:47.077Z,90.10
2022-08-29T22:48:16.311Z,89.60
2022-08-29T22:50:51.996Z,89.20
2022-08-29T22:53:26.725Z,88.80
2022-08-29T22:55:56.540Z,88.30
2022-08-29T22:58:24.487Z,89.00
2022-08-29T23:00:53.449Z,88.30
2022-08-29T23:03:21.407Z,86.90
2022-08-29T23:05:49.430Z,87.00
2022-08-29T23:08:18.446Z,86.60
2022-08-29T23:13:18.759Z,88.40
2022-08-29T23:15:46.807Z,89.00
2022-08-29T23:18:14.812Z,89.00
2022-08-29T23:20:42.788Z,87.80
2022-08-29T23:23:14.972Z,89.50
2022-08-29T23:25:43.187Z,90.00
2022-08-29T23:28:11.201Z,89.80
2022-08-29T23:30:40.599Z,90.60
2022-08-29T23:33:08.991Z,91.90
2022-08-29T23:35:37.139Z,92.00
2022-08-29T23:38:07.643Z,92.30
2022-08-29T23:40:36.031Z,92.40
2022-08-29T23:43:04.711Z,92.20
2022-08-29T23:45:33.315Z,92.70
2022-08-29T23:48:02.752Z,92.10
2022-08-29T23:50:30.844Z,91.50
2022-08-29T23:52:58.819Z,91.70
2022-08-29T23:55:26.974Z,92.10
2022-08-29T23:57:54.957Z,91.90
